Time;durP1;ratioP1;P1;durP2;ratioP2;P2;SDS_P1;SDS_P2;PMS_P1;PMS_P2;Temp;Humidity;BMP_temperature;BMP_pressure;BME280_temperature;BME280_humidity;BME280_pressure;Samples;Min_cycle;Max_cycle;Signal;HPM_P1;HPM_P2
2022/07/05 00:00:26;;;;;;;3.50;0.95;;;26.40;65.40;;;;;;5019578;28;20041;-76
2022/07/05 00:02:53;;;;;;;2.00;0.90;;;26.50;65.40;;;;;;5018453;28;20037;-75
2022/07/05 00:05:20;;;;;;;5.18;1.40;;;26.40;64.70;;;;;;5015727;28;20142;-76
2022/07/05 00:07:47;;;;;;;3.33;0.85;;;26.30;65.20;;;;;;5002784;28;20069;-76
2022/07/05 00:10:14;;;;;;;2.60;0.90;;;26.30;66.20;;;;;;5018838;28;20068;-75
2022/07/05 00:12:41;;;;;;;3.55;1.00;;;26.30;67.30;;;;;;5018500;28;20049;-76
2022/07/05 00:15:09;;;;;;;2.83;1.10;;;26.30;68.30;;;;;;5017244;28;20104;-75
2022/07/05 00:17:36;;;;;;;4.32;0.90;;;26.30;68.70;;;;;;5020888;28;20096;-76
2022/07/05 00:20:04;;;;;;;1.90;1.05;;;26.20;68.90;;;;;;5013679;28;20068;-75
2022/07/05 00:22:31;;;;;;;3.25;1.15;;;26.30;69.40;;;;;;5013866;28;20053;-75
2022/07/05 00:24:58;;;;;;;8.27;1.77;;;26.30;69.50;;;;;;4996612;28;20346;-75
2022/07/05 00:27:25;;;;;;;2.92;1.08;;;26.30;69.60;;;;;;5032899;28;20038;-75
2022/07/05 00:29:52;;;;;;;3.35;1.23;;;26.30;69.80;;;;;;5033273;28;20034;-75
2022/07/05 00:32:19;;;;;;;3.53;1.00;;;26.20;70.40;;;;;;5012358;28;20052;-75
2022/07/05 00:34:46;;;;;;;3.63;1.13;;;26.10;71.00;;;;;;5020883;28;20041;-75
2022/07/05 00:37:14;;;;;;;2.55;1.10;;;26.10;71.20;;;;;;5012617;28;20049;-76
2022/07/05 00:39:41;;;;;;;4.70;1.25;;;26.20;71.40;;;;;;5016665;28;20053;-75
2022/07/05 00:42:09;;;;;;;5.18;1.13;;;26.10;72.60;;;;;;5003530;28;20574;-76
2022/07/05 00:44:39;;;;;;;6.57;1.20;;;26.00;73.50;;;;;;5016960;28;20046;-76
2022/07/05 00:47:08;;;;;;;4.35;1.13;;;25.80;74.60;;;;;;5012632;28;20073;-76
2022/07/05 00:49:37;;;;;;;5.05;1.27;;;25.80;74.70;;;;;;5011326;28;20030;-77
2022/07/05 00:52:05;;;;;;;3.72;1.13;;;25.70;75.40;;;;;;5013535;28;20635;-76
2022/07/05 00:54:48;;;;;;;5.63;1.02;;;25.70;75.90;;;;;;5015412;28;20044;-76
2022/07/05 00:57:19;;;;;;;3.60;1.20;;;25.70;75.90;;;;;;5019373;28;20050;-75
2022/07/05 00:59:46;;;;;;;3.83;1.85;;;25.70;76.00;;;;;;5015906;28;20447;-75
2022/07/05 01:02:13;;;;;;;3.42;1.05;;;25.80;75.80;;;;;;5018203;28;20045;-76
2022/07/05 01:04:48;;;;;;;4.03;1.30;;;25.70;75.90;;;;;;5015358;28;20577;-75
2022/07/05 01:07:15;;;;;;;5.32;1.58;;;25.80;75.90;;;;;;5030587;28;20045;-75
2022/07/05 01:09:42;;;;;;;2.00;1.20;;;25.80;75.80;;;;;;5016631;28;20137;-76
2022/07/05 01:12:10;;;;;;;2.85;1.05;;;25.70;76.50;;;;;;5018168;28;20044;-76
2022/07/05 01:14:37;;;;;;;2.78;1.10;;;25.70;76.50;;;;;;5014321;28;20045;-75
2022/07/05 01:17:04;;;;;;;2.72;0.98;;;25.70;76.50;;;;;;5017083;28;20052;-76
2022/07/05 01:19:32;;;;;;;2.38;1.30;;;25.80;76.40;;;;;;5028310;28;20053;-75
2022/07/05 01:22:07;;;;;;;1.48;0.85;;;25.80;76.30;;;;;;5015851;28;20140;-76
2022/07/05 01:24:34;;;;;;;2.67;1.20;;;25.80;76.30;;;;;;5017824;28;20041;-76
2022/07/05 01:27:02;;;;;;;2.35;0.90;;;25.70;76.70;;;;;;5018820;28;20975;-76
2022/07/05 01:29:29;;;;;;;3.10;1.00;;;25.70;77.10;;;;;;5032014;28;20508;-76
2022/07/05 01:31:56;;;;;;;2.50;1.30;;;25.60;77.20;;;;;;5014915;28;20049;-76
2022/07/05 01:34:23;;;;;;;2.58;1.13;;;25.60;77.70;;;;;;5008921;28;20041;-75
2022/07/05 01:36:50;;;;;;;2.33;1.02;;;25.50;78.10;;;;;;5034391;28;20728;-75
2022/07/05 01:39:18;;;;;;;2.88;1.20;;;25.60;77.90;;;;;;5016330;28;20053;-75
2022/07/05 01:41:47;;;;;;;3.72;0.93;;;25.60;78.00;;;;;;4998807;28;20054;-76
2022/07/05 01:44:15;;;;;;;3.60;1.10;;;25.50;78.00;;;;;;5016186;28;20053;-76
2022/07/05 01:46:43;;;;;;;3.47;1.15;;;25.50;77.90;;;;;;5012441;28;20056;-76
2022/07/05 01:49:16;;;;;;;2.33;0.88;;;25.50;78.00;;;;;;5009627;28;20053;-75
2022/07/05 01:51:54;;;;;;;1.98;1.05;;;25.50;78.30;;;;;;5028329;28;20156;-76
2022/07/05 01:54:22;;;;;;;2.47;1.23;;;25.50;78.40;;;;;;5016279;28;20543;-75
2022/07/05 01:56:49;;;;;;;2.30;1.13;;;25.50;78.60;;;;;;5029909;28;20069;-75
2022/07/05 01:59:16;;;;;;;1.60;0.90;;;25.50;78.20;;;;;;5015061;28;20475;-75
2022/07/05 02:01:43;;;;;;;4.22;1.50;;;25.50;78.40;;;;;;5015275;28;20045;-75
2022/07/05 02:04:11;;;;;;;1.70;0.93;;;25.50;78.10;;;;;;5015205;28;20072;-75
2022/07/05 02:06:39;;;;;;;1.55;0.77;;;25.40;78.20;;;;;;5000669;28;20048;-75
2022/07/05 02:09:08;;;;;;;1.63;0.90;;;25.50;78.90;;;;;;5016444;28;20470;-75
2022/07/05 02:11:35;;;;;;;3.00;1.00;;;25.30;78.50;;;;;;5017267;28;20389;-74
2022/07/05 02:14:04;;;;;;;1.48;0.93;;;25.40;78.60;;;;;;5030445;28;21442;-75
2022/07/05 02:16:37;;;;;;;2.78;0.85;;;25.40;78.40;;;;;;5012204;28;20107;-74
2022/07/05 02:19:04;;;;;;;2.45;0.95;;;25.50;78.50;;;;;;5015165;28;20049;-75
2022/07/05 02:21:36;;;;;;;1.55;0.82;;;25.60;78.30;;;;;;5000605;28;20051;-75
2022/07/05 02:24:07;;;;;;;2.95;0.98;;;25.50;78.10;;;;;;5000600;28;21598;-75
2022/07/05 02:26:39;;;;;;;2.35;0.80;;;25.40;78.40;;;;;;5015290;28;20531;-75
2022/07/05 02:29:07;;;;;;;2.22;1.30;;;25.50;78.20;;;;;;5018732;28;20045;-75
2022/07/05 02:31:36;;;;;;;2.70;1.00;;;25.50;78.40;;;;;;5024298;28;20038;-76
2022/07/05 02:34:04;;;;;;;2.17;0.77;;;25.50;78.30;;;;;;4993474;28;20041;-75
2022/07/05 02:36:31;;;;;;;3.85;1.50;;;25.40;78.60;;;;;;5013150;28;20699;-75
2022/07/05 02:38:59;;;;;;;1.38;0.93;;;25.30;79.20;;;;;;4995097;28;20060;-75
2022/07/05 02:41:26;;;;;;;1.40;1.00;;;25.30;79.20;;;;;;4999260;28;20103;-75
2022/07/05 02:43:53;;;;;;;2.38;0.88;;;25.20;79.40;;;;;;5014465;28;20037;-75
2022/07/05 02:46:26;;;;;;;4.38;1.42;;;25.00;80.20;;;;;;5016562;28;20037;-75
2022/07/05 02:48:56;;;;;;;4.57;1.40;;;24.90;80.50;;;;;;5026416;28;20056;-75
2022/07/05 02:51:29;;;;;;;7.22;1.30;;;25.10;80.00;;;;;;5007777;28;20049;-75
2022/07/05 02:53:57;;;;;;;2.75;0.80;;;25.10;79.70;;;;;;5030974;28;20046;-75
2022/07/05 02:56:24;;;;;;;2.53;1.13;;;25.20;79.40;;;;;;5014767;28;20052;-75
2022/07/05 02:58:52;;;;;;;2.38;1.27;;;25.00;79.80;;;;;;4999346;28;20050;-75
2022/07/05 03:01:21;;;;;;;1.90;0.90;;;24.90;80.00;;;;;;5029941;28;20046;-75
2022/07/05 03:03:49;;;;;;;2.92;0.90;;;25.00;79.80;;;;;;5015840;28;20049;-75
2022/07/05 03:06:18;;;;;;;2.80;0.90;;;25.00;79.60;;;;;;5014419;28;20045;-75
2022/07/05 03:08:45;;;;;;;4.28;1.45;;;25.10;78.90;;;;;;4997641;28;20071;-75
2022/07/05 03:11:13;;;;;;;4.32;1.05;;;25.10;78.70;;;;;;5027668;28;20037;-75
2022/07/05 03:13:40;;;;;;;2.25;0.85;;;25.10;78.60;;;;;;5015317;28;20053;-75
2022/07/05 03:16:07;;;;;;;2.70;0.82;;;25.10;78.70;;;;;;4998443;28;20137;-75
2022/07/05 03:18:34;;;;;;;9.20;1.17;;;25.20;78.20;;;;;;5032924;28;20456;-75
2022/07/05 03:21:04;;;;;;;1.17;0.80;;;25.20;78.20;;;;;;5013737;28;20053;-75
2022/07/05 03:23:33;;;;;;;2.38;0.80;;;25.20;78.10;;;;;;5017860;28;20590;-74
2022/07/05 03:26:01;;;;;;;2.53;1.33;;;25.10;78.30;;;;;;5029755;28;20052;-74
2022/07/05 03:28:29;;;;;;;2.13;0.95;;;25.10;78.70;;;;;;5019519;28;20088;-75
2022/07/05 03:30:59;;;;;;;1.70;1.17;;;25.10;78.80;;;;;;5035588;28;20515;-75
2022/07/05 03:33:27;;;;;;;2.60;1.13;;;25.10;78.60;;;;;;5018675;28;20057;-75
2022/07/05 03:35:58;;;;;;;1.52;0.93;;;25.10;78.80;;;;;;4999290;28;20092;-75
2022/07/05 03:38:26;;;;;;;2.08;0.80;;;25.00;78.90;;;;;;5017209;28;20103;-75
2022/07/05 03:40:53;;;;;;;3.38;1.20;;;25.00;78.90;;;;;;5004705;28;20057;-75
2022/07/05 03:43:22;;;;;;;3.00;1.25;;;25.00;78.80;;;;;;5003576;28;20688;-76
2022/07/05 03:45:49;;;;;;;2.20;0.77;;;25.00;79.40;;;;;;5016566;28;20041;-76
2022/07/05 03:48:17;;;;;;;3.28;1.10;;;25.00;79.20;;;;;;5001410;28;20045;-76
2022/07/05 03:51:04;;;;;;;1.65;0.82;;;25.00;79.30;;;;;;5017935;28;20041;-76
2022/07/05 03:53:31;;;;;;;1.95;1.08;;;25.20;79.20;;;;;;5015741;28;20037;-76
2022/07/05 03:56:01;;;;;;;2.33;1.20;;;25.10;79.10;;;;;;5014545;28;20092;-77
2022/07/05 03:58:28;;;;;;;2.60;0.90;;;25.10;79.40;;;;;;5011959;28;20041;-76
2022/07/05 04:00:58;;;;;;;3.42;0.93;;;25.10;79.30;;;;;;5000652;28;20056;-77
2022/07/05 04:03:26;;;;;;;2.00;0.70;;;25.10;79.10;;;;;;5011750;28;20049;-77
2022/07/05 04:05:54;;;;;;;1.00;0.68;;;25.10;79.30;;;;;;5017664;28;20416;-77
2022/07/05 04:08:22;;;;;;;2.50;0.80;;;25.10;79.40;;;;;;5001404;28;20060;-76
2022/07/05 04:10:49;;;;;;;0.90;0.70;;;25.10;79.10;;;;;;5022033;28;20068;-77
2022/07/05 04:13:19;;;;;;;1.70;0.60;;;25.10;79.00;;;;;;5018835;28;20060;-77
2022/07/05 04:15:48;;;;;;;2.20;0.82;;;25.20;79.10;;;;;;5015860;28;20052;-76
2022/07/05 04:18:15;;;;;;;4.13;1.25;;;25.20;79.00;;;;;;5028405;28;20845;-77
2022/07/05 04:20:43;;;;;;;4.65;1.30;;;25.20;79.00;;;;;;5011014;28;20104;-77
2022/07/05 04:23:12;;;;;;;6.30;1.33;;;25.20;78.90;;;;;;5017845;28;20041;-77
2022/07/05 04:25:40;;;;;;;3.60;0.90;;;25.20;78.60;;;;;;5018742;28;20064;-76
2022/07/05 04:28:14;;;;;;;5.80;0.88;;;25.20;78.50;;;;;;5018070;28;20492;-77
2022/07/05 04:30:43;;;;;;;3.83;1.15;;;25.20;78.00;;;;;;5014571;28;20041;-77
2022/07/05 04:33:12;;;;;;;1.83;1.05;;;25.30;77.50;;;;;;5015333;28;20046;-76
2022/07/05 04:35:42;;;;;;;2.53;0.80;;;25.30;77.70;;;;;;5014831;28;20088;-77
2022/07/05 04:38:09;;;;;;;1.63;0.95;;;25.30;77.00;;;;;;5015677;28;20488;-76
2022/07/05 04:40:40;;;;;;;1.10;0.90;;;25.40;77.60;;;;;;5034695;28;20069;-76
2022/07/05 04:43:08;;;;;;;6.53;1.02;;;25.40;76.70;;;;;;5014580;28;20049;-77
2022/07/05 04:45:35;;;;;;;4.53;1.05;;;25.30;76.70;;;;;;5017660;28;20140;-76
2022/07/05 04:48:04;;;;;;;1.98;1.00;;;25.30;76.50;;;;;;5015293;28;20061;-77
2022/07/05 04:50:32;;;;;;;5.00;1.10;;;25.40;76.50;;;;;;5031129;28;20304;-76
2022/07/05 04:53:00;;;;;;;1.10;0.75;;;25.40;76.10;;;;;;4997010;28;20049;-76
2022/07/05 04:55:27;;;;;;;2.80;0.90;;;25.40;75.80;;;;;;5016543;28;20041;-76
2022/07/05 04:57:54;;;;;;;2.78;0.70;;;25.50;75.90;;;;;;5017417;28;20091;-77
2022/07/05 05:00:21;;;;;;;2.65;0.80;;;25.50;75.30;;;;;;4991154;28;20505;-76
2022/07/05 05:02:48;;;;;;;4.57;1.08;;;25.60;75.70;;;;;;4978229;28;20122;-77
2022/07/05 05:05:15;;;;;;;2.30;1.15;;;25.60;75.60;;;;;;4978288;28;20084;-76
2022/07/05 05:07:44;;;;;;;5.03;0.98;;;25.60;75.40;;;;;;4981421;28;20819;-76
2022/07/05 05:10:11;;;;;;;3.53;0.77;;;25.60;75.30;;;;;;4992096;28;20049;-76
2022/07/05 05:12:38;;;;;;;6.05;1.25;;;25.60;75.30;;;;;;4963071;28;20122;-76
2022/07/05 05:15:09;;;;;;;3.67;0.98;;;25.50;75.10;;;;;;4983887;28;20804;-77
2022/07/05 05:17:39;;;;;;;2.78;1.38;;;25.40;75.30;;;;;;4977548;28;20163;-76
2022/07/05 05:20:11;;;;;;;2.05;0.70;;;25.40;75.30;;;;;;4988778;28;20041;-76
2022/07/05 05:22:39;;;;;;;1.80;1.00;;;25.40;75.20;;;;;;4977873;28;20057;-76
2022/07/05 05:25:06;;;;;;;1.67;1.02;;;25.40;75.30;;;;;;4968708;28;20048;-77
2022/07/05 05:27:33;;;;;;;1.50;0.77;;;25.40;75.60;;;;;;4954011;28;20046;-76
2022/07/05 05:30:01;;;;;;;4.50;1.10;;;25.40;75.40;;;;;;4972271;28;20041;-76
2022/07/05 05:32:28;;;;;;;1.10;0.65;;;25.40;75.40;;;;;;4990866;28;20037;-76
2022/07/05 05:34:55;;;;;;;1.75;1.00;;;25.40;75.50;;;;;;4954600;28;20061;-76
2022/07/05 05:37:22;;;;;;;4.03;1.10;;;25.40;75.50;;;;;;4978655;28;20057;-76
2022/07/05 05:39:49;;;;;;;3.72;1.23;;;25.50;75.60;;;;;;4979025;28;20195;-76
2022/07/05 05:42:16;;;;;;;4.82;0.93;;;25.50;75.30;;;;;;4983216;28;20682;-76
2022/07/05 05:44:43;;;;;;;1.23;0.73;;;25.50;75.00;;;;;;4980842;28;22136;-76
2022/07/05 05:47:10;;;;;;;2.95;1.10;;;25.50;75.60;;;;;;4980796;28;20744;-76
2022/07/05 05:49:44;;;;;;;2.80;1.00;;;25.50;75.90;;;;;;4967134;28;20169;-76
2022/07/05 05:52:11;;;;;;;3.22;1.02;;;25.40;76.00;;;;;;4977626;28;20123;-76
2022/07/05 05:54:38;;;;;;;1.83;0.82;;;25.40;76.20;;;;;;4975786;28;20057;-76
2022/07/05 05:57:05;;;;;;;1.77;0.90;;;25.50;76.00;;;;;;4979890;28;20054;-75
2022/07/05 05:59:32;;;;;;;4.10;1.30;;;25.60;75.70;;;;;;4967079;28;20847;-76
2022/07/05 06:01:59;;;;;;;2.90;1.20;;;25.70;75.70;;;;;;4976049;28;20060;-76
2022/07/05 06:04:27;;;;;;;4.85;1.40;;;25.80;75.50;;;;;;4972632;28;20433;-76
2022/07/05 06:06:54;;;;;;;3.15;1.25;;;25.90;74.60;;;;;;4965815;28;20118;-76
2022/07/05 06:09:21;;;;;;;5.55;1.13;;;26.00;74.90;;;;;;4991714;28;20052;-76
2022/07/05 06:11:48;;;;;;;2.88;0.98;;;26.00;74.70;;;;;;4965924;28;20081;-76
2022/07/05 06:14:15;;;;;;;1.30;0.75;;;26.00;74.60;;;;;;4979172;28;20103;-75
2022/07/05 06:16:42;;;;;;;2.80;1.10;;;26.10;74.40;;;;;;4954916;28;20060;-76
2022/07/05 06:19:09;;;;;;;2.78;0.90;;;26.10;74.90;;;;;;4976212;28;21365;-76
2022/07/05 06:21:36;;;;;;;3.95;1.25;;;26.10;74.10;;;;;;4977969;28;20045;-76
2022/07/05 06:24:03;;;;;;;4.47;1.17;;;26.10;74.30;;;;;;4967700;28;20797;-76
2022/07/05 06:26:30;;;;;;;5.82;0.80;;;26.10;74.30;;;;;;4987249;28;20037;-75
2022/07/05 06:28:57;;;;;;;4.82;1.20;;;26.00;73.80;;;;;;4978333;28;20072;-77
2022/07/05 06:31:25;;;;;;;4.18;0.98;;;26.00;74.70;;;;;;4981151;28;20095;-77
2022/07/05 06:33:52;;;;;;;2.60;0.73;;;26.00;74.70;;;;;;4981005;28;20108;-77
2022/07/05 06:36:19;;;;;;;2.83;1.20;;;26.10;74.60;;;;;;4980367;28;21777;-77
2022/07/05 06:38:47;;;;;;;5.18;1.10;;;26.10;74.00;;;;;;4967294;28;20038;-77
2022/07/05 06:41:14;;;;;;;2.38;1.00;;;26.10;74.10;;;;;;4977767;28;20076;-76
2022/07/05 06:43:41;;;;;;;10.15;1.40;;;26.20;74.30;;;;;;4972762;28;20046;-76
2022/07/05 06:46:14;;;;;;;2.85;1.63;;;26.40;74.20;;;;;;4968204;28;20083;-76
2022/07/05 06:48:41;;;;;;;2.72;1.50;;;26.40;74.00;;;;;;4955838;28;22045;-77
2022/07/05 06:51:08;;;;;;;1.95;0.75;;;26.40;73.30;;;;;;4975671;28;20118;-77
2022/07/05 06:53:36;;;;;;;3.50;0.70;;;26.50;72.70;;;;;;4993273;28;20492;-77
2022/07/05 06:56:03;;;;;;;3.08;0.98;;;26.50;72.50;;;;;;4985767;28;20058;-76
2022/07/05 06:58:30;;;;;;;3.78;1.02;;;26.60;71.60;;;;;;4982289;28;20548;-75
2022/07/05 07:00:57;;;;;;;1.20;0.90;;;26.70;71.70;;;;;;4992129;28;22022;-76
2022/07/05 07:03:46;;;;;;;4.18;1.02;;;26.70;71.70;;;;;;4991330;28;20052;-76
2022/07/05 07:06:33;;;;;;;5.07;1.00;;;26.90;70.60;;;;;;4998831;28;20050;-76
2022/07/05 07:09:20;;;;;;;1.92;0.70;;;27.30;68.40;;;;;;4978616;28;20469;-77
2022/07/05 07:11:48;;;;;;;3.80;0.60;;;27.60;68.10;;;;;;4961627;28;20180;-77
2022/07/05 07:14:16;;;;;;;4.00;0.73;;;28.00;67.40;;;;;;4975676;28;20054;-76
2022/07/05 07:16:43;;;;;;;7.68;0.82;;;28.00;66.70;;;;;;4987699;28;20375;-76
2022/07/05 07:19:10;;;;;;;2.08;0.70;;;28.00;66.10;;;;;;4959616;28;20048;-77
2022/07/05 07:21:41;;;;;;;3.40;0.60;;;27.90;66.40;;;;;;4978401;28;20424;-77
2022/07/05 07:24:09;;;;;;;3.08;0.70;;;27.90;65.30;;;;;;4978249;28;20315;-76
2022/07/05 07:29:22;;;;;;;1.95;0.45;;;28.40;64.80;;;;;;4980458;28;20841;-76
2022/07/05 07:31:50;;;;;;;1.92;1.00;;;28.60;65.00;;;;;;4956333;28;20048;-76
2022/07/05 07:34:17;;;;;;;4.45;0.80;;;28.70;64.00;;;;;;4978372;28;20049;-76
2022/07/05 07:36:44;;;;;;;2.15;0.73;;;28.50;63.60;;;;;;4978474;28;20053;-77
2022/07/05 07:39:11;;;;;;;4.95;0.65;;;28.20;64.30;;;;;;4982077;28;20072;-76
2022/07/05 07:41:39;;;;;;;4.03;0.68;;;28.00;64.80;;;;;;4976433;28;20128;-77
2022/07/05 07:44:06;;;;;;;6.22;1.00;;;27.90;65.60;;;;;;4980586;28;20088;-77
2022/07/05 07:46:33;;;;;;;2.92;0.80;;;27.90;65.80;;;;;;4952133;28;20053;-76
2022/07/05 07:49:01;;;;;;;2.38;0.63;;;27.70;66.20;;;;;;4977766;28;20558;-76
2022/07/05 07:51:29;;;;;;;2.08;0.70;;;27.60;66.00;;;;;;4982467;28;20065;-78
2022/07/05 07:53:56;;;;;;;1.50;0.70;;;27.70;66.10;;;;;;4954482;28;20049;-76
2022/07/05 07:56:27;;;;;;;2.15;0.60;;;27.70;65.60;;;;;;4977326;28;20194;-76
2022/07/05 07:58:54;;;;;;;2.47;0.82;;;27.80;66.50;;;;;;4980210;28;20041;-77
2022/07/05 08:01:22;;;;;;;3.90;0.90;;;27.80;65.60;;;;;;4967201;28;20108;-77
2022/07/05 08:03:49;;;;;;;5.78;0.90;;;27.90;67.10;;;;;;4956828;28;20381;-76
2022/07/05 08:06:17;;;;;;;7.93;0.60;;;27.90;65.80;;;;;;4970208;28;21085;-76
2022/07/05 08:08:44;;;;;;;2.45;0.60;;;27.90;65.90;;;;;;4969114;28;22650;-77
2022/07/05 08:11:12;;;;;;;1.70;0.90;;;27.90;65.90;;;;;;4980883;28;20037;-78
2022/07/05 08:13:40;;;;;;;1.45;0.60;;;27.80;65.30;;;;;;4972593;28;20049;-77
2022/07/05 08:16:09;;;;;;;1.73;0.70;;;27.80;64.40;;;;;;4983651;28;20132;-78
2022/07/05 08:21:31;;;;;;;1.80;0.80;;;27.80;64.60;;;;;;4982912;28;20889;-76
2022/07/05 08:24:00;;;;;;;1.23;0.75;;;27.80;64.10;;;;;;4972992;28;20622;-77
2022/07/05 08:26:30;;;;;;;1.80;0.85;;;27.70;64.90;;;;;;4974566;28;20107;-76
2022/07/05 08:28:58;;;;;;;2.50;0.73;;;27.70;64.70;;;;;;4972545;28;20971;-77
2022/07/05 08:31:37;;;;;;;1.90;0.77;;;27.90;65.40;;;;;;4981156;28;20064;-77
2022/07/05 08:34:04;;;;;;;3.47;0.80;;;28.10;65.20;;;;;;4981688;28;20776;-76
2022/07/05 08:36:31;;;;;;;1.08;0.60;;;27.80;64.50;;;;;;4982564;28;20056;-77
2022/07/05 08:38:58;;;;;;;3.78;0.80;;;27.80;64.00;;;;;;4978963;28;20080;-76
2022/07/05 08:41:26;;;;;;;4.78;0.82;;;27.70;64.30;;;;;;4972339;28;20712;-77
2022/07/05 08:43:56;;;;;;;4.05;0.85;;;27.80;64.50;;;;;;4970945;28;22179;-77
2022/07/05 08:46:25;;;;;;;1.80;0.85;;;28.00;64.40;;;;;;4976095;28;20135;-77
2022/07/05 08:48:55;;;;;;;1.48;0.65;;;28.10;64.30;;;;;;4986867;28;20084;-77
2022/07/05 08:51:23;;;;;;;3.50;0.63;;;28.30;63.10;;;;;;5022320;28;22456;-76
2022/07/05 08:53:52;;;;;;;2.13;0.85;;;28.50;63.00;;;;;;5007731;28;21115;-76
2022/07/05 08:56:20;;;;;;;5.85;0.85;;;28.70;62.70;;;;;;5000683;28;22423;-77
2022/07/05 08:59:07;;;;;;;3.53;0.77;;;28.70;61.50;;;;;;5005544;28;20057;-76
2022/07/05 09:01:35;;;;;;;9.65;0.95;;;28.50;61.40;;;;;;4994623;28;20512;-77
2022/07/05 09:04:07;;;;;;;10.02;1.45;;;28.30;61.20;;;;;;5023043;28;20060;-77
2022/07/05 09:06:38;;;;;;;2.17;0.68;;;28.40;61.30;;;;;;5012056;28;20199;-76
2022/07/05 09:09:06;;;;;;;2.28;0.77;;;28.80;61.40;;;;;;5010926;28;20049;-76
2022/07/05 09:11:38;;;;;;;3.08;0.70;;;29.00;61.30;;;;;;4989634;28;20060;-76
2022/07/05 09:14:18;;;;;;;1.52;0.63;;;29.00;61.50;;;;;;4977051;28;20442;-77
2022/07/05 09:16:56;;;;;;;1.00;0.55;;;29.00;63.40;;;;;;5012232;28;20057;-76
2022/07/05 09:19:23;;;;;;;5.28;0.60;;;29.00;62.40;;;;;;5021066;28;20042;-77
2022/07/05 09:22:03;;;;;;;1.90;0.65;;;29.00;63.00;;;;;;5011165;28;20252;-76
2022/07/05 09:24:31;;;;;;;1.98;0.50;;;29.10;62.30;;;;;;4975735;28;20107;-76
2022/07/05 09:27:03;;;;;;;1.25;0.63;;;29.00;62.80;;;;;;4952482;28;20053;-77
2022/07/05 09:29:30;;;;;;;2.40;0.63;;;29.10;64.00;;;;;;4981861;28;20040;-76
2022/07/05 09:32:25;;;;;;;3.92;0.52;;;29.00;63.20;;;;;;4979186;28;20417;-77
2022/07/05 09:34:52;;;;;;;1.95;0.75;;;28.70;63.00;;;;;;4986031;28;20528;-77
2022/07/05 09:37:19;;;;;;;4.78;0.85;;;28.80;64.30;;;;;;4977168;28;20142;-76
2022/07/05 09:39:46;;;;;;;2.13;0.60;;;28.80;63.90;;;;;;4978434;28;20053;-77
2022/07/05 09:42:25;;;;;;;1.85;0.55;;;28.90;63.60;;;;;;4977998;28;21332;-76
2022/07/05 09:44:55;;;;;;;2.78;1.00;;;28.80;63.90;;;;;;4978252;28;20041;-77
2022/07/05 09:47:27;;;;;;;3.05;0.60;;;28.70;63.40;;;;;;4997119;28;20053;-78
2022/07/05 09:49:57;;;;;;;1.02;0.93;;;28.60;64.20;;;;;;4981458;28;20507;-77
2022/07/05 09:52:41;;;;;;;1.65;0.60;;;28.60;64.10;;;;;;4979485;28;20081;-77
2022/07/05 09:55:09;;;;;;;3.42;0.85;;;28.50;64.50;;;;;;4974276;28;20159;-77
2022/07/05 09:57:41;;;;;;;2.63;0.70;;;28.60;64.50;;;;;;4980445;28;20053;-77
2022/07/05 10:00:10;;;;;;;2.92;0.50;;;28.60;64.50;;;;;;4979079;28;20057;-78
2022/07/05 10:02:44;;;;;;;1.73;1.27;;;28.60;64.40;;;;;;4996061;28;20100;-77
2022/07/05 10:05:25;;;;;;;3.72;0.70;;;28.30;64.80;;;;;;4969746;28;20053;-77
2022/07/05 10:08:02;;;;;;;1.35;0.93;;;28.10;64.90;;;;;;4967379;28;20110;-77
2022/07/05 10:10:31;;;;;;;2.63;0.90;;;27.80;65.10;;;;;;4978541;28;20512;-78
2022/07/05 10:13:01;;;;;;;2.50;0.40;;;27.50;65.80;;;;;;4964211;28;20060;-77
2022/07/05 10:15:31;;;;;;;7.40;1.17;;;27.30;66.80;;;;;;4979830;28;20056;-76
2022/07/05 10:18:07;;;;;;;4.22;0.55;;;27.30;66.90;;;;;;4995040;28;20878;-77
2022/07/05 10:20:42;;;;;;;8.35;0.60;;;27.10;67.50;;;;;;4974358;28;20096;-77
2022/07/05 10:23:09;;;;;;;1.05;0.40;;;26.80;68.10;;;;;;4977995;28;20312;-76
2022/07/05 10:25:37;;;;;;;0.82;0.40;;;26.90;68.70;;;;;;4979213;28;20052;-77
2022/07/05 10:28:06;;;;;;;1.38;0.50;;;26.60;69.50;;;;;;4976523;28;20045;-77
2022/07/05 10:30:34;;;;;;;2.90;0.45;;;26.60;70.30;;;;;;4976300;28;20045;-78
2022/07/05 10:33:03;;;;;;;3.40;0.60;;;26.50;70.90;;;;;;4953329;28;20085;-77
2022/07/05 10:35:30;;;;;;;3.63;0.88;;;26.70;70.80;;;;;;4977748;28;20052;-76
2022/07/05 10:38:02;;;;;;;3.17;0.52;;;26.70;70.90;;;;;;4982612;28;20603;-74
2022/07/05 10:40:31;;;;;;;;;;;26.60;71.90;;;;;;4972583;28;20720;-75
2022/07/05 10:43:01;;;;;;;1.73;0.85;;;26.20;74.00;;;;;;4987707;28;20438;-79
2022/07/05 10:45:33;;;;;;;3.60;0.60;;;25.70;75.80;;;;;;4995789;28;20056;-76
2022/07/05 10:48:09;;;;;;;2.75;1.25;;;25.90;79.20;;;;;;4995785;28;22334;-76
2022/07/05 10:50:43;;;;;;;4.35;1.15;;;25.70;82.90;;;;;;4982333;28;20083;-78
2022/07/05 10:53:12;;;;;;;3.22;1.10;;;25.60;85.60;;;;;;4975873;28;20432;-75
2022/07/05 10:55:50;;;;;;;3.95;0.90;;;25.70;86.70;;;;;;4977776;28;20709;-77
2022/07/05 10:58:17;;;;;;;7.90;1.65;;;25.70;89.80;;;;;;4982204;28;21291;-76
2022/07/05 11:00:48;;;;;;;10.85;2.38;;;25.30;92.90;;;;;;5011604;28;20042;-77
2022/07/05 11:03:41;;;;;;;8.45;2.30;;;25.00;97.40;;;;;;5014738;28;20064;-76
2022/07/05 11:06:19;;;;;;;8.07;1.75;;;24.90;99.60;;;;;;5005568;28;20052;-76
2022/07/05 11:09:09;;;;;;;4.25;1.98;;;24.70;99.50;;;;;;5015499;28;20485;-77
2022/07/05 11:11:40;;;;;;;5.95;1.63;;;24.50;99.90;;;;;;5017799;28;20095;-75
2022/07/05 11:14:20;;;;;;;4.03;1.77;;;24.50;99.90;;;;;;5012447;28;20052;-77
2022/07/05 11:16:48;;;;;;;5.00;2.00;;;24.80;99.90;;;;;;5029368;28;20053;-75
2022/07/05 11:19:20;;;;;;;6.38;1.80;;;24.70;99.90;;;;;;5030893;28;22488;-75
2022/07/05 11:22:01;;;;;;;3.83;1.67;;;24.60;99.90;;;;;;5005568;28;20049;-76
2022/07/05 11:24:33;;;;;;;4.20;1.90;;;24.60;99.90;;;;;;4984056;28;20053;-76
2022/07/05 11:27:02;;;;;;;6.43;2.20;;;24.40;99.90;;;;;;4963359;28;20049;-76
2022/07/05 11:29:42;;;;;;;3.20;1.83;;;24.20;99.90;;;;;;4983172;28;20092;-76
2022/07/05 11:32:12;;;;;;;4.15;1.50;;;24.30;99.90;;;;;;4982042;28;20053;-76
2022/07/05 11:34:41;;;;;;;3.08;1.15;;;24.10;99.90;;;;;;4981648;28;20045;-76
2022/07/05 11:37:28;;;;;;;1.67;1.23;;;24.00;99.90;;;;;;4967801;28;20060;-76
2022/07/05 11:40:12;;;;;;;1.65;0.70;;;24.00;99.90;;;;;;4970948;28;20704;-77
2022/07/05 11:42:47;;;;;;;1.88;1.15;;;23.90;99.90;;;;;;4972274;28;20060;-76
2022/07/05 11:45:14;;;;;;;2.80;0.90;;;23.80;99.90;;;;;;4982807;28;20108;-75
2022/07/05 11:47:41;;;;;;;2.58;0.90;;;23.70;99.90;;;;;;4978764;28;22008;-76
2022/07/05 11:50:11;;;;;;;2.70;1.20;;;23.60;99.90;;;;;;4966566;28;22167;-75
2022/07/05 11:52:39;;;;;;;2.88;1.13;;;23.40;99.90;;;;;;4967387;28;20099;-74
2022/07/05 11:55:11;;;;;;;2.00;1.00;;;23.30;99.90;;;;;;4980661;28;20164;-74
2022/07/05 11:57:49;;;;;;;3.17;1.02;;;23.20;99.90;;;;;;4981043;28;20050;-76
2022/07/05 12:00:36;;;;;;;2.50;0.95;;;23.30;99.90;;;;;;4972593;28;20049;-75
2022/07/05 12:03:12;;;;;;;3.33;1.00;;;23.30;99.90;;;;;;4971126;28;20060;-75
2022/07/05 12:05:40;;;;;;;1.60;0.80;;;23.30;99.90;;;;;;4977943;28;20045;-75
2022/07/05 12:08:09;;;;;;;1.83;0.80;;;23.00;99.90;;;;;;4977504;28;20083;-74
2022/07/05 12:13:50;;;;;;;1.65;0.98;;;23.60;99.90;;;;;;4979957;28;20046;-75
2022/07/05 12:16:17;;;;;;;1.25;0.90;;;23.60;99.90;;;;;;4972215;28;20053;-76
2022/07/05 12:18:55;;;;;;;2.13;0.80;;;23.80;99.90;;;;;;4980612;28;20045;-75
2022/07/05 12:21:23;;;;;;;2.55;1.00;;;23.90;99.90;;;;;;4977350;28;20238;-75
2022/07/05 12:23:51;;;;;;;2.42;0.88;;;23.90;99.90;;;;;;4975714;28;20053;-75
2022/07/05 12:26:21;;;;;;;2.10;0.85;;;23.70;99.90;;;;;;4969722;28;20041;-76
2022/07/05 12:28:49;;;;;;;2.47;1.20;;;23.90;99.90;;;;;;4974624;28;20230;-76
2022/07/05 12:31:20;;;;;;;3.35;1.33;;;23.80;99.90;;;;;;4973832;28;20816;-76
2022/07/05 12:33:49;;;;;;;3.58;1.60;;;23.90;99.90;;;;;;4986203;28;20056;-75
2022/07/05 12:36:18;;;;;;;3.60;1.38;;;24.00;99.90;;;;;;4975683;28;20068;-75
2022/07/05 12:38:46;;;;;;;6.80;2.33;;;24.10;99.90;;;;;;4962439;28;20049;-76
2022/07/05 12:41:22;;;;;;;2.65;1.73;;;24.30;99.90;;;;;;4989531;28;22176;-76
2022/07/05 12:43:54;;;;;;;2.78;1.50;;;24.20;99.90;;;;;;4963321;28;20163;-76
2022/07/05 12:46:45;;;;;;;2.85;1.63;;;24.10;99.90;;;;;;4974875;28;20056;-77
2022/07/05 12:49:12;;;;;;;3.78;1.60;;;24.10;99.90;;;;;;4972382;28;20183;-76
2022/07/05 12:51:44;;;;;;;3.85;1.67;;;24.10;99.90;;;;;;4971730;28;20048;-76
2022/07/05 13:00:08;;;;;;;2.95;1.40;;;24.00;99.90;;;;;;4979694;28;20049;-77
2022/07/05 13:02:46;;;;;;;2.92;1.30;;;23.80;99.90;;;;;;4983641;28;20048;-75
2022/07/05 13:05:24;;;;;;;2.30;1.25;;;23.70;99.90;;;;;;4982319;28;20049;-75
2022/07/05 13:07:52;;;;;;;3.22;1.15;;;23.80;99.90;;;;;;4980929;28;20053;-75
2022/07/05 13:10:22;;;;;;;1.92;1.23;;;23.50;99.90;;;;;;4980093;28;20052;-75
2022/07/05 13:12:49;;;;;;;1.90;1.08;;;23.40;99.90;;;;;;4985990;28;20088;-75
2022/07/05 13:15:17;;;;;;;1.67;0.95;;;23.40;99.90;;;;;;4980537;28;20053;-76